createdAt,value
2018-02-08T00:01:42.019Z,59.32
2018-02-08T00:04:14.543Z,59.46
2018-02-08T00:06:47.039Z,59.47
2018-02-08T00:09:19.570Z,59.52
2018-02-08T00:11:52.062Z,59.39
2018-02-08T00:14:24.586Z,58.84
2018-02-08T00:16:57.083Z,59.43
2018-02-08T00:19:29.612Z,59.52
2018-02-08T00:22:02.128Z,59.53
2018-02-08T00:24:34.648Z,59.60
2018-02-08T00:27:07.157Z,59.30
2018-02-08T00:29:39.684Z,59.24
2018-02-08T00:32:12.202Z,59.25
2018-02-08T00:34:44.765Z,59.27
2018-02-08T00:37:17.271Z,59.17
2018-02-08T00:39:49.780Z,59.23
2018-02-08T00:42:22.284Z,59.09
2018-02-08T00:44:54.806Z,59.26
2018-02-08T00:47:27.315Z,59.41
2018-02-08T00:49:59.829Z,59.28
2018-02-08T00:52:32.346Z,59.21
2018-02-08T00:55:04.864Z,58.88
2018-02-08T00:57:37.365Z,59.19
2018-02-08T01:00:09.903Z,59.12
2018-02-08T01:02:42.451Z,58.97
2018-02-08T01:05:14.974Z,59.32
2018-02-08T01:07:47.507Z,59.10
2018-02-08T01:10:20.042Z,59.15
2018-02-08T01:12:52.554Z,59.43
2018-02-08T01:15:25.086Z,58.87
2018-02-08T01:17:57.590Z,59.23
2018-02-08T01:20:30.119Z,59.25
2018-02-08T01:23:02.631Z,59.09
2018-02-08T01:25:35.166Z,59.15
2018-02-08T01:28:07.674Z,58.99
2018-02-08T01:30:40.215Z,58.74
2018-02-08T01:33:12.725Z,58.92
2018-02-08T01:35:45.250Z,57.18
2018-02-08T01:38:17.755Z,57.68
2018-02-08T01:40:50.279Z,59.04
2018-02-08T01:43:22.775Z,59.32
2018-02-08T01:45:55.297Z,59.31
2018-02-08T01:48:27.811Z,59.24
2018-02-08T01:51:00.319Z,58.71
2018-02-08T01:53:32.831Z,58.83
2018-02-08T01:56:05.448Z,58.72
2018-02-08T01:58:37.943Z,58.04
2018-02-08T02:01:10.463Z,58.83
2018-02-08T02:03:42.968Z,58.97
2018-02-08T02:06:15.492Z,59.13
2018-02-08T02:08:47.987Z,58.99
2018-02-08T02:11:20.520Z,58.45
2018-02-08T02:13:53.021Z,58.94
2018-02-08T02:16:25.549Z,58.81
2018-02-08T02:18:58.069Z,58.32
2018-02-08T02:21:30.583Z,58.72
2018-02-08T02:24:03.105Z,58.98
2018-02-08T02:26:35.605Z,58.96
2018-02-08T02:29:08.122Z,59.17
2018-02-08T02:31:40.622Z,58.89
2018-02-08T02:34:13.147Z,58.83
2018-02-08T02:36:45.646Z,58.76
2018-02-08T02:39:18.234Z,58.64
2018-02-08T02:41:50.767Z,58.55
2018-02-08T02:44:23.288Z,58.92
2018-02-08T02:46:55.780Z,58.73
2018-02-08T02:49:28.313Z,58.81
2018-02-08T02:52:00.806Z,58.78
2018-02-08T02:54:33.336Z,58.90
2018-02-08T02:57:05.844Z,58.87
2018-02-08T02:59:38.362Z,58.53
2018-02-08T03:02:10.856Z,58.91
2018-02-08T03:04:43.415Z,58.96
2018-02-08T03:07:15.917Z,58.87
2018-02-08T03:09:48.451Z,58.78
2018-02-08T03:12:20.972Z,58.92
2018-02-08T03:14:53.484Z,58.89
2018-02-08T03:17:25.983Z,58.51
2018-02-08T03:19:58.500Z,58.74
2018-02-08T03:22:30.996Z,58.75
2018-02-08T03:25:03.514Z,58.92
2018-02-08T03:27:36.015Z,58.74
2018-02-08T03:30:08.535Z,58.67
2018-02-08T03:32:41.031Z,58.44
2018-02-08T03:35:13.547Z,58.59
2018-02-08T03:37:46.053Z,58.40
2018-02-08T03:40:18.614Z,58.47
2018-02-08T03:42:51.126Z,58.58
2018-02-08T03:45:23.655Z,58.73
2018-02-08T03:47:56.183Z,58.41
2018-02-08T03:50:28.754Z,58.11
2018-02-08T03:53:01.248Z,58.40
2018-02-08T03:55:33.826Z,58.57
2018-02-08T03:58:06.353Z,58.65
2018-02-08T04:00:38.877Z,58.61
2018-02-08T04:03:11.379Z,58.27
2018-02-08T04:05:43.903Z,58.40
2018-02-08T04:08:16.432Z,58.26
2018-02-08T04:10:48.961Z,58.55
2018-02-08T04:13:21.465Z,58.48
2018-02-08T04:15:53.980Z,58.29
2018-02-08T04:18:26.495Z,57.95
2018-02-08T04:20:59.032Z,58.54
2018-02-08T04:23:31.565Z,58.73
2018-02-08T04:26:04.105Z,58.49
2018-02-08T04:28:36.594Z,58.53
2018-02-08T04:31:09.185Z,58.41
2018-02-08T04:33:41.692Z,58.22
2018-02-08T04:36:14.215Z,58.41
2018-02-08T04:38:58.377Z,58.45
2018-02-08T04:41:42.558Z,58.27
2018-02-08T04:44:27.068Z,58.36
2018-02-08T04:47:11.441Z,58.27
2018-02-08T04:49:43.952Z,58.57
2018-02-08T04:52:16.475Z,58.49
2018-02-08T04:54:48.977Z,58.34
2018-02-08T04:57:21.495Z,58.30
2018-02-08T04:59:53.998Z,58.53
2018-02-08T05:02:26.505Z,58.50
2018-02-08T05:04:59.013Z,58.72
2018-02-08T05:07:31.540Z,58.33
2018-02-08T05:10:04.067Z,58.35
2018-02-08T05:12:36.602Z,58.33
2018-02-08T05:15:09.106Z,58.44
2018-02-08T05:17:41.617Z,58.59
2018-02-08T05:20:14.118Z,58.50
2018-02-08T05:22:46.636Z,58.43
2018-02-08T05:25:19.140Z,58.38
2018-02-08T05:27:51.659Z,58.44
2018-02-08T05:30:24.153Z,58.23
2018-02-08T05:32:56.687Z,58.31
2018-02-08T05:35:29.222Z,58.18
2018-02-08T05:38:01.747Z,58.33
2018-02-08T05:40:34.247Z,58.48
2018-02-08T05:43:06.760Z,58.53
2018-02-08T05:45:39.257Z,58.47
2018-02-08T05:48:11.808Z,58.28
2018-02-08T05:50:44.324Z,58.04
2018-02-08T05:53:16.858Z,58.01
2018-02-08T05:55:49.363Z,58.14
2018-02-08T05:58:21.894Z,58.15
2018-02-08T06:00:54.408Z,58.16
2018-02-08T06:03:26.930Z,57.45
2018-02-08T06:05:59.436Z,57.78
2018-02-08T06:08:31.959Z,58.10
2018-02-08T06:11:04.457Z,58.22
2018-02-08T06:13:36.987Z,58.03
2018-02-08T06:16:09.488Z,58.14
2018-02-08T06:18:42.013Z,58.20
2018-02-08T06:21:14.515Z,58.14
2018-02-08T06:23:47.032Z,58.34
2018-02-08T06:26:19.561Z,58.17
2018-02-08T06:28:52.099Z,58.21
2018-02-08T06:31:24.619Z,58.29
2018-02-08T06:33:57.119Z,58.20
2018-02-08T06:36:29.632Z,58.09
2018-02-08T06:39:02.139Z,58.10
2018-02-08T06:41:34.673Z,58.19
2018-02-08T06:44:07.184Z,58.11
2018-02-08T06:46:39.720Z,57.96
2018-02-08T06:49:12.392Z,58.18
2018-02-08T06:51:44.946Z,58.24
2018-02-08T06:54:17.454Z,58.01
2018-02-08T06:56:49.983Z,58.28
2018-02-08T06:59:22.490Z,58.30
2018-02-08T07:01:55.032Z,58.21
2018-02-08T07:04:27.556Z,58.28
2018-02-08T07:07:00.528Z,58.09
2018-02-08T07:09:33.024Z,58.22
2018-02-08T07:12:05.552Z,58.33
2018-02-08T07:14:38.050Z,58.14
2018-02-08T07:17:10.588Z,58.25
2018-02-08T07:19:43.095Z,58.26
2018-02-08T07:22:15.634Z,58.10
2018-02-08T07:24:48.149Z,58.32
2018-02-08T07:27:20.699Z,58.47
2018-02-08T07:29:53.209Z,58.55
2018-02-08T07:32:25.726Z,58.44
2018-02-08T07:34:58.240Z,58.35
2018-02-08T07:37:30.775Z,58.36
2018-02-08T07:40:03.284Z,58.43
2018-02-08T07:42:35.900Z,58.37
2018-02-08T07:45:08.473Z,58.38
2018-02-08T07:47:41.055Z,58.57
2018-02-08T07:50:13.560Z,58.59
2018-02-08T07:52:46.077Z,58.70
2018-02-08T07:55:18.566Z,58.62
2018-02-08T07:57:51.093Z,58.33
2018-02-08T08:00:23.630Z,57.65
2018-02-08T08:02:56.159Z,58.09
2018-02-08T08:05:28.660Z,58.71
2018-02-08T08:08:01.209Z,58.67
2018-02-08T08:10:33.760Z,58.64
2018-02-08T08:13:06.369Z,58.89
2018-02-08T08:15:38.882Z,58.59
2018-02-08T08:18:11.406Z,58.50
2018-02-08T08:20:43.913Z,58.55
2018-02-08T08:23:16.446Z,58.58
2018-02-08T08:25:49.430Z,58.73
2018-02-08T08:28:22.624Z,58.67
2018-02-08T08:30:55.159Z,58.22
2018-02-08T08:33:27.687Z,59.10
2018-02-08T08:36:00.198Z,58.86
2018-02-08T08:38:32.776Z,58.50
2018-02-08T08:41:05.323Z,58.18
2018-02-08T08:43:38.827Z,58.21
2018-02-08T08:46:11.430Z,57.39
2018-02-08T08:48:43.958Z,57.56
2018-02-08T08:51:16.465Z,57.72
2018-02-08T08:53:48.986Z,57.82
2018-02-08T08:56:21.510Z,58.11
2018-02-08T08:58:54.053Z,58.73
2018-02-08T09:01:26.570Z,59.16
2018-02-08T09:03:59.073Z,58.71
2018-02-08T09:06:31.585Z,58.63
2018-02-08T09:09:04.133Z,58.30
2018-02-08T09:11:36.673Z,58.46
2018-02-08T09:14:09.192Z,58.48
2018-02-08T09:16:41.710Z,58.79
2018-02-08T09:19:14.247Z,58.73
2018-02-08T09:21:46.750Z,59.00
2018-02-08T09:24:19.286Z,59.88
2018-02-08T09:26:51.805Z,58.68
2018-02-08T09:29:24.332Z,58.56
2018-02-08T09:31:56.842Z,58.55
2018-02-08T09:34:29.358Z,58.89
2018-02-08T09:37:01.872Z,59.05
2018-02-08T09:39:34.390Z,59.02
2018-02-08T09:42:06.911Z,59.32
2018-02-08T09:44:39.454Z,59.32
2018-02-08T09:47:11.959Z,59.59
2018-02-08T09:49:44.496Z,59.37
2018-02-08T09:52:16.987Z,59.44
2018-02-08T09:54:49.514Z,59.67
2018-02-08T09:57:22.029Z,59.57
2018-02-08T09:59:54.568Z,59.67
2018-02-08T10:02:27.093Z,59.90
2018-02-08T10:04:59.588Z,59.86
2018-02-08T10:07:32.118Z,59.03
2018-02-08T10:10:04.615Z,59.20
2018-02-08T10:12:37.134Z,59.55
2018-02-08T10:15:09.627Z,59.48
2018-02-08T10:17:42.157Z,59.07
2018-02-08T10:20:14.695Z,59.69
2018-02-08T10:22:47.247Z,59.58
2018-02-08T10:25:19.768Z,58.88
2018-02-08T10:27:52.289Z,59.40
2018-02-08T10:30:24.802Z,59.33
2018-02-08T10:32:57.338Z,59.32
2018-02-08T10:35:29.847Z,59.20
2018-02-08T10:38:02.383Z,58.78
2018-02-08T10:40:34.872Z,58.89
2018-02-08T10:43:07.393Z,58.64
2018-02-08T10:45:39.892Z,59.19
2018-02-08T10:48:12.419Z,59.20
2018-02-08T10:50:44.973Z,59.44
2018-02-08T10:53:17.480Z,59.20
2018-02-08T10:55:49.984Z,58.98
2018-02-08T10:58:22.503Z,59.18
2018-02-08T11:00:55.024Z,59.31
2018-02-08T11:03:27.549Z,59.21
2018-02-08T11:06:00.071Z,59.22
2018-02-08T11:08:32.651Z,58.10
2018-02-08T11:11:05.175Z,59.00
2018-02-08T11:13:37.762Z,59.15
2018-02-08T11:16:10.268Z,58.59
2018-02-08T11:18:42.824Z,58.69
2018-02-08T11:21:15.421Z,59.05
2018-02-08T11:23:47.936Z,57.93
2018-02-08T11:26:20.470Z,55.55
2018-02-08T11:28:52.986Z,58.19
2018-02-08T11:31:25.479Z,58.07
2018-02-08T11:33:57.991Z,52.78
2018-02-08T11:36:30.489Z,55.09
2018-02-08T11:39:03.015Z,47.00
2018-02-08T11:41:35.512Z,54.46
2018-02-08T11:44:08.025Z,54.44
2018-02-08T11:46:40.632Z,51.53
2018-02-08T11:49:13.168Z,53.90
2018-02-08T11:51:45.662Z,52.41
2018-02-08T11:54:18.175Z,55.75
2018-02-08T11:56:50.671Z,52.39
2018-02-08T11:59:23.186Z,53.21
2018-02-08T12:01:55.685Z,54.49
2018-02-08T12:04:28.201Z,51.22
2018-02-08T12:07:00.706Z,55.19
2018-02-08T12:09:33.492Z,54.96
2018-02-08T12:12:06.052Z,55.62
2018-02-08T12:14:38.539Z,52.82
2018-02-08T12:17:11.052Z,46.90
2018-02-08T12:19:43.748Z,51.80
2018-02-08T12:22:16.247Z,54.01
2018-02-08T12:24:48.768Z,54.35
2018-02-08T12:27:21.259Z,54.02
2018-02-08T12:29:53.865Z,54.82
2018-02-08T12:32:26.382Z,55.28
2018-02-08T12:34:58.896Z,55.49
2018-02-08T12:37:31.392Z,53.60
2018-02-08T12:40:03.909Z,53.44
2018-02-08T12:42:36.420Z,51.68
2018-02-08T12:45:09.768Z,54.57
2018-02-08T12:47:43.186Z,47.07
2018-02-08T12:50:15.699Z,54.55
2018-02-08T12:52:48.213Z,54.73
2018-02-08T12:55:20.728Z,54.66
2018-02-08T12:57:53.251Z,54.57
2018-02-08T13:00:25.759Z,53.83
2018-02-08T13:02:58.330Z,54.29
2018-02-08T13:05:30.877Z,54.62
2018-02-08T13:08:03.411Z,53.59
2018-02-08T13:10:35.959Z,53.44
2018-02-08T13:13:08.449Z,54.72
2018-02-08T13:15:40.971Z,55.03
2018-02-08T13:18:13.475Z,55.09
2018-02-08T13:20:46.641Z,55.91
2018-02-08T13:23:19.208Z,55.43
2018-02-08T13:25:51.700Z,55.66
2018-02-08T13:28:24.205Z,55.73
2018-02-08T13:30:56.735Z,55.48
2018-02-08T13:33:29.250Z,55.42
2018-02-08T13:36:01.751Z,55.50
2018-02-08T13:38:34.279Z,55.71
2018-02-08T13:41:06.790Z,55.47
2018-02-08T13:43:39.311Z,54.49
2018-02-08T13:46:11.816Z,55.31
2018-02-08T13:48:44.329Z,50.91
2018-02-08T13:54:28.530Z,54.64
2018-02-08T14:00:11.757Z,54.95
2018-02-08T14:02:44.297Z,55.97
2018-02-08T14:05:16.821Z,55.93
2018-02-08T14:07:49.321Z,55.32
2018-02-08T14:10:21.835Z,55.95
2018-02-08T14:12:54.335Z,55.61
2018-02-08T14:15:26.848Z,55.89
2018-02-08T14:17:59.352Z,55.50
2018-02-08T14:20:31.872Z,55.65
2018-02-08T14:23:04.386Z,53.62
2018-02-08T14:25:36.898Z,55.47
2018-02-08T14:28:09.399Z,55.72
2018-02-08T14:30:41.926Z,56.12
2018-02-08T14:33:14.426Z,56.00
2018-02-08T14:35:46.948Z,55.62
2018-02-08T14:38:19.455Z,55.97
2018-02-08T14:40:51.978Z,53.58
2018-02-08T14:43:24.471Z,54.17
2018-02-08T14:45:56.991Z,54.67
2018-02-08T14:48:29.498Z,55.85
2018-02-08T14:51:02.027Z,54.62
2018-02-08T14:53:34.536Z,49.15
2018-02-08T14:56:07.057Z,55.11
2018-02-08T14:58:39.546Z,56.03
2018-02-08T15:01:12.063Z,55.95
2018-02-08T15:03:44.564Z,55.62
2018-02-08T15:06:17.076Z,55.80
2018-02-08T15:08:49.573Z,56.07
2018-02-08T15:11:22.096Z,56.27
2018-02-08T15:13:54.600Z,56.34
2018-02-08T15:16:27.121Z,56.13
2018-02-08T15:18:59.623Z,56.07
2018-02-08T15:21:32.153Z,56.01
2018-02-08T15:24:04.645Z,56.22
2018-02-08T15:26:37.151Z,56.02
2018-02-08T15:29:09.656Z,56.05
2018-02-08T15:31:42.201Z,55.28
2018-02-08T15:34:14.708Z,56.67
2018-02-08T15:36:47.215Z,56.92
2018-02-08T15:39:19.713Z,56.60
2018-02-08T15:41:52.269Z,56.78
2018-02-08T15:44:24.779Z,56.83
2018-02-08T15:46:57.287Z,56.70
2018-02-08T15:49:29.797Z,56.18
2018-02-08T15:52:02.318Z,56.79
2018-02-08T15:54:34.820Z,57.05
2018-02-08T15:57:07.347Z,57.09
2018-02-08T15:59:39.849Z,57.18
2018-02-08T16:02:12.364Z,57.34
2018-02-08T16:04:44.868Z,57.37
2018-02-08T16:07:17.373Z,57.45
2018-02-08T16:09:49.860Z,57.45
2018-02-08T16:12:22.430Z,57.62
2018-02-08T16:14:54.938Z,57.75
2018-02-08T16:17:27.457Z,57.96
2018-02-08T16:19:59.957Z,58.21
2018-02-08T16:22:32.518Z,58.04
2018-02-08T16:25:05.022Z,58.04
2018-02-08T16:27:37.539Z,58.19
2018-02-08T16:30:10.052Z,58.15
2018-02-08T16:32:42.559Z,58.08
2018-02-08T16:35:15.055Z,58.22
2018-02-08T16:37:47.603Z,58.24
2018-02-08T16:40:20.135Z,58.32
2018-02-08T16:42:52.726Z,58.26
2018-02-08T16:45:25.235Z,58.31
2018-02-08T16:47:57.783Z,58.53
2018-02-08T16:50:30.305Z,58.76
2018-02-08T16:53:02.797Z,58.85
2018-02-08T16:55:35.323Z,58.99
2018-02-08T16:58:07.818Z,59.00
2018-02-08T17:00:40.353Z,59.01
2018-02-08T17:03:12.851Z,59.04
2018-02-08T17:05:45.355Z,59.22
2018-02-08T17:08:17.868Z,58.81
2018-02-08T17:10:50.471Z,59.35
2018-02-08T17:13:23.016Z,59.29
2018-02-08T17:15:55.548Z,59.13
2018-02-08T17:18:28.092Z,59.04
2018-02-08T17:21:00.739Z,59.01
2018-02-08T17:23:33.295Z,59.32
2018-02-08T17:26:06.145Z,59.47
2018-02-08T17:28:38.708Z,59.53
2018-02-08T17:31:11.293Z,59.44
2018-02-08T17:33:44.926Z,59.19
2018-02-08T17:36:17.435Z,59.63
2018-02-08T17:38:49.955Z,59.26
2018-02-08T17:41:22.469Z,59.14
2018-02-08T17:43:54.973Z,59.74
2018-02-08T17:46:27.491Z,59.81
2018-02-08T17:49:00.008Z,59.64
2018-02-08T17:51:32.545Z,59.76
2018-02-08T17:54:05.031Z,59.69
2018-02-08T17:56:37.582Z,59.67
2018-02-08T17:59:10.094Z,59.81
2018-02-08T18:01:42.617Z,59.77
2018-02-08T18:04:15.128Z,59.84
2018-02-08T18:06:47.675Z,60.04
2018-02-08T18:09:20.177Z,60.13
2018-02-08T18:11:52.693Z,60.33
2018-02-08T18:14:25.313Z,60.23
2018-02-08T18:16:57.833Z,60.17
2018-02-08T18:19:30.328Z,60.34
2018-02-08T18:22:02.861Z,60.17
2018-02-08T18:24:35.365Z,60.28
2018-02-08T18:27:07.875Z,60.40
2018-02-08T18:29:40.386Z,60.51
2018-02-08T18:32:12.951Z,60.62
2018-02-08T18:34:45.462Z,60.83
2018-02-08T18:37:18.023Z,61.09
2018-02-08T18:39:50.524Z,60.79
2018-02-08T18:42:23.044Z,60.76
2018-02-08T18:44:55.563Z,60.69
2018-02-08T18:47:28.074Z,60.83
2018-02-08T18:50:00.585Z,61.00
2018-02-08T18:52:33.152Z,60.76
2018-02-08T18:55:05.712Z,60.89
2018-02-08T18:57:38.244Z,60.82
2018-02-08T19:00:10.751Z,61.05
2018-02-08T19:02:43.274Z,60.95
2018-02-08T19:05:15.788Z,61.16
2018-02-08T19:07:48.299Z,60.95
2018-02-08T19:10:20.862Z,60.92
2018-02-08T19:12:53.378Z,60.92
2018-02-08T19:15:25.869Z,60.67
2018-02-08T19:17:58.413Z,60.66
2018-02-08T19:20:30.968Z,60.68
2018-02-08T19:23:03.524Z,60.61
2018-02-08T19:25:36.134Z,60.72
2018-02-08T19:28:09.127Z,60.61
2018-02-08T19:30:41.671Z,60.59
2018-02-08T19:33:14.202Z,60.70
2018-02-08T19:35:46.694Z,60.84
2018-02-08T19:38:19.206Z,60.72
2018-02-08T19:40:51.707Z,60.58
2018-02-08T19:43:24.224Z,60.62
2018-02-08T19:45:56.720Z,61.11
2018-02-08T19:48:29.223Z,61.03
2018-02-08T19:51:01.722Z,60.79
2018-02-08T19:53:34.258Z,60.51
2018-02-08T19:56:06.780Z,60.37
2018-02-08T19:58:40.119Z,60.22
2018-02-08T20:01:12.680Z,60.33
2018-02-08T20:03:45.207Z,60.04
2018-02-08T20:06:17.698Z,60.05
2018-02-08T20:08:50.827Z,59.86
2018-02-08T20:11:23.556Z,59.65
2018-02-08T20:13:56.187Z,59.51
2018-02-08T20:16:28.684Z,59.83
2018-02-08T20:19:01.206Z,59.75
2018-02-08T20:21:33.720Z,59.67
2018-02-08T20:24:06.233Z,59.61
2018-02-08T20:26:38.784Z,59.58
2018-02-08T20:29:11.276Z,59.41
2018-02-08T20:31:43.803Z,59.31
2018-02-08T20:34:16.412Z,59.44
2018-02-08T20:36:48.946Z,59.27
2018-02-08T20:39:21.450Z,59.36
2018-02-08T20:41:54.003Z,59.48
2018-02-08T20:44:26.587Z,59.17
2018-02-08T20:46:59.335Z,59.18
2018-02-08T20:49:31.901Z,58.97
2018-02-08T20:52:04.431Z,59.30
2018-02-08T20:54:36.940Z,59.39
2018-02-08T20:57:09.466Z,59.39
2018-02-08T20:59:41.973Z,59.32
2018-02-08T21:02:14.494Z,59.41
2018-02-08T21:04:47.024Z,59.40
2018-02-08T21:07:19.655Z,59.40
2018-02-08T21:09:52.303Z,59.31
2018-02-08T21:12:24.824Z,59.17
2018-02-08T21:14:57.342Z,59.09
2018-02-08T21:17:29.871Z,59.17
2018-02-08T21:20:02.377Z,59.09
2018-02-08T21:22:34.919Z,59.23
2018-02-08T21:25:07.430Z,59.25
2018-02-08T21:27:39.953Z,58.92
2018-02-08T21:30:12.457Z,59.22
2018-02-08T21:32:44.988Z,59.10
2018-02-08T21:35:17.500Z,59.08
2018-02-08T21:37:50.067Z,59.11
2018-02-08T21:40:22.967Z,59.22
2018-02-08T21:42:55.551Z,59.24
2018-02-08T21:45:28.052Z,58.96
2018-02-08T21:48:00.578Z,58.97
2018-02-08T21:50:33.084Z,59.10
2018-02-08T21:53:05.624Z,59.00
2018-02-08T21:55:38.126Z,59.05
2018-02-08T21:58:10.635Z,59.04
2018-02-08T22:00:43.143Z,59.04
2018-02-08T22:03:15.664Z,59.03
2018-02-08T22:05:48.160Z,58.98
2018-02-08T22:08:20.687Z,58.89
2018-02-08T22:10:53.203Z,58.91
2018-02-08T22:13:25.718Z,58.87
2018-02-08T22:15:58.234Z,58.61
2018-02-08T22:18:30.789Z,58.78
2018-02-08T22:21:03.297Z,58.91
2018-02-08T22:23:35.819Z,58.98
2018-02-08T22:26:08.330Z,58.85
2018-02-08T22:28:40.859Z,58.79
2018-02-08T22:31:13.375Z,58.85
2018-02-08T22:33:45.905Z,58.71
2018-02-08T22:36:18.439Z,58.78
2018-02-08T22:38:50.967Z,58.74
2018-02-08T22:41:23.476Z,58.88
2018-02-08T22:43:56.002Z,58.75
2018-02-08T22:46:28.509Z,58.75
2018-02-08T22:49:01.056Z,58.93
2018-02-08T22:51:33.555Z,58.86
2018-02-08T22:54:06.098Z,58.70
2018-02-08T22:56:38.662Z,58.89
2018-02-08T22:59:11.192Z,58.50
2018-02-08T23:01:43.699Z,58.75
2018-02-08T23:04:16.232Z,58.86
2018-02-08T23:06:48.750Z,58.92
2018-02-08T23:09:21.275Z,58.84
2018-02-08T23:11:53.784Z,58.74
2018-02-08T23:14:26.305Z,58.67
2018-02-08T23:16:58.798Z,58.64
2018-02-08T23:19:31.320Z,58.73
2018-02-08T23:22:03.826Z,58.61
2018-02-08T23:24:36.364Z,58.74
2018-02-08T23:27:08.860Z,58.70
2018-02-08T23:29:41.393Z,58.68
2018-02-08T23:32:13.927Z,58.72
2018-02-08T23:34:46.516Z,58.67
2018-02-08T23:37:19.063Z,58.63
2018-02-08T23:39:51.628Z,58.41
2018-02-08T23:42:24.164Z,58.38
2018-02-08T23:44:56.764Z,58.53
2018-02-08T23:47:29.356Z,58.69
2018-02-08T23:50:01.911Z,58.57
2018-02-08T23:52:34.415Z,58.52
2018-02-08T23:55:06.995Z,58.59
2018-02-08T23:57:39.553Z,58.47
